Time;durP1;ratioP1;P1;durP2;ratioP2;P2;SDS_P1;SDS_P2;PMS_P1;PMS_P2;Temp;Humidity;BMP_temperature;BMP_pressure;BME280_temperature;BME280_humidity;BME280_pressure;Samples;Min_cycle;Max_cycle;Signal;HPM_P1;HPM_P2
2022/06/28 00:01:51;;;;;;;1.93;1.80;;;18.50;79.00;;;;;;5060190;28;20446;-45
2022/06/28 00:04:21;;;;;;;1.80;1.70;;;18.50;78.80;;;;;;5062969;28;20445;-45
2022/06/28 00:06:48;;;;;;;1.90;1.77;;;18.50;78.80;;;;;;5045852;28;20828;-45
2022/06/28 00:09:14;;;;;;;2.33;1.80;;;18.40;79.00;;;;;;5061112;28;20449;-45
2022/06/28 00:11:42;;;;;;;1.50;1.40;;;18.40;79.00;;;;;;5045662;28;20447;-45
2022/06/28 00:17:00;;;;;;;1.70;1.60;;;18.40;79.20;;;;;;5030278;28;20488;-45
2022/06/28 00:19:27;;;;;;;1.93;1.80;;;18.30;79.20;;;;;;5061572;28;20449;-45
2022/06/28 00:21:54;;;;;;;1.90;1.70;;;18.30;79.30;;;;;;5063639;28;21002;-45
2022/06/28 00:24:22;;;;;;;1.73;1.57;;;18.30;79.10;;;;;;5043744;28;20452;-45
2022/06/28 00:26:48;;;;;;;2.73;1.90;;;18.30;79.20;;;;;;5059482;28;20956;-45
2022/06/28 00:29:16;;;;;;;1.57;1.47;;;18.30;79.20;;;;;;5045506;28;20442;-45
2022/06/28 00:31:42;;;;;;;1.27;1.17;;;18.20;79.60;;;;;;5044257;28;20446;-45
2022/06/28 00:34:10;;;;;;;3.37;1.53;;;18.20;80.00;;;;;;5061723;28;20573;-45
2022/06/28 00:36:36;;;;;;;2.83;1.50;;;18.10;80.30;;;;;;5060413;28;20442;-45
2022/06/28 00:39:04;;;;;;;2.17;1.97;;;18.10;80.60;;;;;;5046803;28;20449;-45
2022/06/28 00:41:31;;;;;;;2.03;1.70;;;18.10;80.50;;;;;;5045540;28;21251;-45
2022/06/28 00:43:58;;;;;;;2.73;2.00;;;18.10;80.40;;;;;;5043637;28;20472;-45
2022/06/28 00:46:29;;;;;;;1.50;1.40;;;18.00;80.50;;;;;;5059393;28;20538;-45
2022/06/28 00:48:56;;;;;;;1.90;1.80;;;18.00;80.60;;;;;;5060848;28;20459;-45
2022/06/28 00:51:24;;;;;;;2.50;1.63;;;18.00;80.80;;;;;;5046203;28;20537;-45
2022/06/28 00:53:53;;;;;;;2.57;1.90;;;17.90;80.80;;;;;;5056775;28;20486;-45
2022/06/28 00:56:20;;;;;;;4.23;1.87;;;17.90;80.80;;;;;;5062389;28;20453;-45
2022/06/28 00:58:47;;;;;;;3.03;1.60;;;17.90;80.40;;;;;;5058001;28;20449;-45
2022/06/28 01:01:14;;;;;;;2.07;1.87;;;17.80;80.30;;;;;;5062709;28;20607;-45
2022/06/28 01:03:41;;;;;;;3.07;1.70;;;17.80;80.50;;;;;;5064406;28;20443;-45
2022/06/28 01:06:08;;;;;;;2.03;1.83;;;17.80;80.70;;;;;;5045055;28;20511;-45
2022/06/28 01:08:35;;;;;;;2.60;2.37;;;17.80;81.20;;;;;;5057258;28;20446;-45
2022/06/28 01:11:18;;;;;;;2.13;1.60;;;17.70;81.10;;;;;;5058447;28;20449;-45
2022/06/28 01:13:47;;;;;;;3.30;1.87;;;17.70;81.20;;;;;;5060631;28;20495;-45
2022/06/28 01:16:14;;;;;;;1.60;1.50;;;17.70;81.40;;;;;;5058733;28;20468;-45
2022/06/28 01:18:42;;;;;;;2.13;1.60;;;17.70;81.30;;;;;;5045729;28;20480;-45
2022/06/28 01:21:11;;;;;;;1.57;1.47;;;17.70;81.30;;;;;;5059360;28;20454;-45
2022/06/28 01:23:38;;;;;;;2.00;1.80;;;17.70;81.40;;;;;;5060536;28;20533;-45
2022/06/28 01:26:05;;;;;;;3.03;1.80;;;17.60;81.40;;;;;;5062125;28;20803;-45
2022/06/28 01:28:33;;;;;;;2.20;2.03;;;17.60;81.50;;;;;;5062326;28;20454;-45
2022/06/28 01:31:00;;;;;;;3.83;1.90;;;17.50;81.60;;;;;;5041266;28;20993;-45
2022/06/28 01:33:27;;;;;;;3.83;2.00;;;17.50;81.30;;;;;;5040612;28;20536;-45
2022/06/28 01:35:54;;;;;;;2.23;1.80;;;17.50;81.10;;;;;;5045829;28;20822;-45
2022/06/28 01:38:22;;;;;;;2.20;1.70;;;17.50;81.00;;;;;;5043963;28;20471;-45
2022/06/28 01:40:49;;;;;;;2.43;2.07;;;17.50;80.90;;;;;;5045880;28;21007;-45
2022/06/28 01:43:17;;;;;;;2.40;1.87;;;17.40;81.30;;;;;;5060906;28;20445;-45
2022/06/28 01:45:45;;;;;;;2.80;2.00;;;17.40;81.80;;;;;;5059937;28;20460;-45
2022/06/28 01:48:10;;;;;;;2.40;2.20;;;17.30;81.90;;;;;;5058696;28;20443;-45
2022/06/28 01:50:37;;;;;;;2.40;1.80;;;17.40;81.90;;;;;;5056434;28;20453;-45
2022/06/28 01:53:04;;;;;;;1.80;1.60;;;17.40;81.60;;;;;;5058378;28;20474;-45
2022/06/28 01:55:32;;;;;;;2.27;2.07;;;17.40;81.80;;;;;;5032021;28;20478;-45
2022/06/28 01:57:58;;;;;;;5.57;1.80;;;17.30;82.00;;;;;;5044665;28;20450;-45
2022/06/28 02:00:25;;;;;;;2.07;1.93;;;17.30;81.90;;;;;;5062115;28;20513;-45
2022/06/28 02:02:52;;;;;;;1.70;1.60;;;17.30;82.10;;;;;;5061036;28;20464;-45
2022/06/28 02:05:19;;;;;;;2.40;1.70;;;17.30;82.10;;;;;;5062115;28;20521;-45
2022/06/28 02:07:48;;;;;;;3.50;2.33;;;17.30;82.20;;;;;;5060265;28;20452;-47
2022/06/28 02:10:15;;;;;;;3.00;1.80;;;17.30;82.20;;;;;;5025917;28;20451;-47
2022/06/28 02:12:42;;;;;;;3.20;1.77;;;17.20;82.20;;;;;;5040817;28;20444;-47
2022/06/28 02:15:10;;;;;;;2.60;1.60;;;17.20;82.30;;;;;;5044514;28;20539;-47
2022/06/28 02:17:36;;;;;;;2.90;2.20;;;17.20;82.30;;;;;;5044037;28;20482;-47
2022/06/28 02:20:04;;;;;;;2.97;1.73;;;17.20;82.10;;;;;;5062764;28;20449;-47
2022/06/28 02:22:31;;;;;;;2.67;2.30;;;17.20;81.90;;;;;;5047230;28;20446;-47
2022/06/28 02:24:58;;;;;;;2.63;2.17;;;17.20;82.20;;;;;;5064871;28;20452;-47
2022/06/28 02:27:25;;;;;;;2.83;2.40;;;17.20;82.20;;;;;;5067571;28;20451;-47
2022/06/28 02:29:51;;;;;;;1.90;1.80;;;17.20;82.10;;;;;;5046290;28;20532;-47
2022/06/28 02:32:18;;;;;;;2.30;2.10;;;17.10;82.10;;;;;;5055249;28;20445;-47
2022/06/28 02:40:22;;;;;;;4.57;2.13;;;17.00;81.80;;;;;;5065231;28;20446;-47
2022/06/28 02:42:57;;;;;;;3.97;2.20;;;17.00;81.80;;;;;;5050463;28;20987;-47
2022/06/28 02:45:27;;;;;;;2.67;2.43;;;16.90;81.70;;;;;;5048716;28;20828;-47
2022/06/28 02:47:54;;;;;;;2.80;2.37;;;16.90;81.90;;;;;;5063086;28;20450;-47
2022/06/28 02:50:21;;;;;;;3.70;2.20;;;16.90;82.00;;;;;;5062675;28;20446;-46
2022/06/28 02:52:49;;;;;;;3.57;2.70;;;16.90;81.60;;;;;;5061269;28;20447;-47
2022/06/28 02:55:16;;;;;;;6.10;3.30;;;16.90;81.10;;;;;;5063080;28;20481;-47
2022/06/28 02:57:44;;;;;;;2.27;2.07;;;16.80;81.20;;;;;;5065909;28;20446;-47
2022/06/28 03:00:15;;;;;;;2.80;2.60;;;16.80;81.00;;;;;;5064864;28;20471;-47
2022/06/28 03:02:43;;;;;;;3.67;3.17;;;16.80;80.80;;;;;;5049088;28;20799;-47
2022/06/28 03:05:14;;;;;;;2.83;2.13;;;16.80;80.70;;;;;;5047675;28;20529;-47
2022/06/28 03:07:42;;;;;;;2.43;2.17;;;16.80;80.30;;;;;;5062697;28;20461;-47
2022/06/28 03:10:10;;;;;;;3.37;2.17;;;16.70;80.90;;;;;;5047462;28;20461;-47
2022/06/28 03:12:37;;;;;;;5.10;2.53;;;16.70;81.70;;;;;;5063008;28;20814;-47
2022/06/28 03:15:05;;;;;;;2.80;2.53;;;16.60;81.70;;;;;;5064146;28;20497;-47
2022/06/28 03:17:32;;;;;;;3.50;3.10;;;16.60;81.70;;;;;;5048796;28;20454;-46
2022/06/28 03:20:00;;;;;;;4.30;2.40;;;16.60;81.70;;;;;;5050070;28;20470;-47
2022/06/28 03:22:27;;;;;;;3.27;2.10;;;16.60;82.00;;;;;;5043729;28;20449;-46
2022/06/28 03:24:54;;;;;;;3.27;2.30;;;16.60;82.10;;;;;;5064120;28;20453;-47
2022/06/28 03:27:20;;;;;;;2.63;2.00;;;16.50;82.10;;;;;;5064137;28;20445;-47
2022/06/28 03:29:47;;;;;;;3.27;2.20;;;16.50;82.40;;;;;;5045032;28;20462;-47
2022/06/28 03:32:14;;;;;;;2.17;1.97;;;16.50;82.40;;;;;;5064957;28;20456;-46
2022/06/28 03:34:41;;;;;;;4.53;2.77;;;16.60;82.10;;;;;;5044918;28;21039;-48
2022/06/28 03:37:08;;;;;;;2.90;2.57;;;16.50;82.20;;;;;;5044659;28;20445;-47
2022/06/28 03:39:35;;;;;;;3.83;3.10;;;16.60;82.20;;;;;;5061470;28;20445;-47
2022/06/28 03:42:02;;;;;;;3.80;2.57;;;16.60;81.90;;;;;;5061036;28;20927;-48
2022/06/28 03:44:29;;;;;;;3.53;3.23;;;16.50;81.50;;;;;;5062384;28;20446;-47
2022/06/28 03:46:56;;;;;;;2.83;2.40;;;16.50;81.30;;;;;;5047212;28;20801;-48
2022/06/28 03:49:22;;;;;;;6.40;2.53;;;16.50;80.90;;;;;;5044815;28;20456;-47
2022/06/28 03:51:49;;;;;;;5.20;2.70;;;16.50;80.40;;;;;;5046868;28;20439;-47
2022/06/28 03:54:16;;;;;;;4.63;2.67;;;16.50;80.50;;;;;;5046273;28;20442;-47
2022/06/28 03:56:43;;;;;;;5.87;2.30;;;16.40;80.80;;;;;;5059325;28;20452;-47
2022/06/28 03:59:10;;;;;;;7.27;2.80;;;16.40;80.80;;;;;;5062177;28;20890;-47
2022/06/28 04:01:36;;;;;;;4.80;2.50;;;16.40;81.00;;;;;;5061341;28;20443;-47
2022/06/28 04:04:03;;;;;;;10.20;3.20;;;16.30;81.40;;;;;;5061199;28;20455;-47
2022/06/28 04:06:30;;;;;;;7.10;3.07;;;16.30;82.00;;;;;;5061514;28;20816;-47
2022/06/28 04:08:57;;;;;;;7.00;3.03;;;16.30;82.10;;;;;;5062725;28;20454;-47
2022/06/28 04:11:23;;;;;;;5.40;3.43;;;16.30;82.20;;;;;;5062131;28;20452;-47
2022/06/28 04:13:52;;;;;;;10.77;3.07;;;16.30;82.50;;;;;;5060332;28;20816;-47
2022/06/28 04:16:21;;;;;;;5.50;3.63;;;16.30;82.60;;;;;;5063134;28;20477;-47
2022/06/28 04:18:48;;;;;;;8.20;4.57;;;16.30;82.70;;;;;;5061385;28;20443;-48
2022/06/28 04:21:17;;;;;;;5.17;3.43;;;16.30;83.00;;;;;;5061806;28;20456;-47
2022/06/28 04:23:44;;;;;;;3.43;2.90;;;16.30;83.20;;;;;;5048945;28;20981;-47
2022/06/28 04:26:11;;;;;;;8.70;3.70;;;16.40;83.30;;;;;;5042074;28;20445;-47
2022/06/28 04:28:38;;;;;;;7.80;3.60;;;16.40;83.20;;;;;;5046537;28;20840;-47
2022/06/28 04:31:06;;;;;;;3.73;3.27;;;16.40;83.50;;;;;;5056441;28;20971;-47
2022/06/28 04:33:33;;;;;;;7.27;3.90;;;16.40;83.50;;;;;;5043783;28;20447;-47
2022/06/28 04:36:00;;;;;;;4.80;3.50;;;16.40;83.80;;;;;;5061232;28;20492;-47
2022/06/28 04:38:26;;;;;;;4.53;3.67;;;16.40;84.00;;;;;;5060374;28;20453;-47
2022/06/28 04:40:53;;;;;;;6.90;3.60;;;16.50;84.20;;;;;;5041266;28;20947;-47
2022/06/28 04:43:20;;;;;;;6.93;4.30;;;16.50;84.30;;;;;;5044083;28;20488;-46
2022/06/28 04:45:47;;;;;;;11.83;5.10;;;16.50;84.40;;;;;;5061655;28;20449;-47
2022/06/28 04:48:13;;;;;;;4.93;4.00;;;16.60;84.50;;;;;;5060671;28;20434;-47
2022/06/28 04:50:40;;;;;;;5.43;4.33;;;16.60;84.60;;;;;;5065287;28;20456;-45
2022/06/28 04:53:07;;;;;;;5.00;4.50;;;16.60;84.60;;;;;;5036301;28;20449;-45
2022/06/28 04:55:34;;;;;;;6.00;4.10;;;16.60;84.70;;;;;;5046864;28;20481;-45
2022/06/28 04:58:01;;;;;;;6.70;4.40;;;16.70;84.80;;;;;;5058825;28;20460;-45
2022/06/28 05:00:29;;;;;;;7.03;4.87;;;16.70;84.80;;;;;;5044171;28;20468;-46
2022/06/28 05:03:15;;;;;;;4.77;4.10;;;16.80;84.80;;;;;;5061794;28;20449;-46
2022/06/28 05:05:42;;;;;;;6.90;5.27;;;16.80;84.80;;;;;;5029764;28;20520;-45
2022/06/28 05:08:09;;;;;;;6.93;4.70;;;16.90;84.80;;;;;;5050035;28;20478;-45
2022/06/28 05:10:36;;;;;;;5.40;4.50;;;16.90;84.10;;;;;;5039176;28;20443;-45
2022/06/28 05:13:03;;;;;;;5.20;4.70;;;17.00;83.60;;;;;;5059944;28;20453;-45
2022/06/28 05:15:32;;;;;;;6.70;4.90;;;17.10;83.30;;;;;;5046677;28;20497;-46
2022/06/28 05:17:58;;;;;;;4.37;3.97;;;17.10;83.50;;;;;;5054021;28;20465;-45
2022/06/28 05:20:25;;;;;;;5.30;4.90;;;17.20;83.60;;;;;;5061444;28;20448;-45
2022/06/28 05:22:52;;;;;;;8.50;5.13;;;17.20;83.90;;;;;;5046225;28;20970;-45
2022/06/28 05:25:19;;;;;;;6.17;5.00;;;17.30;83.20;;;;;;5043569;28;20458;-45
2022/06/28 05:27:46;;;;;;;7.33;5.57;;;17.30;83.00;;;;;;5058128;28;20450;-45
2022/06/28 05:30:12;;;;;;;7.70;5.40;;;17.40;83.20;;;;;;5047914;28;20445;-45
2022/06/28 05:32:39;;;;;;;7.97;6.67;;;17.40;83.30;;;;;;5053702;28;20463;-45
2022/06/28 05:35:07;;;;;;;11.10;7.57;;;17.50;82.90;;;;;;5051273;28;20580;-45
2022/06/28 05:37:34;;;;;;;7.93;6.20;;;17.50;82.60;;;;;;5062013;28;20951;-45
2022/06/28 05:40:02;;;;;;;10.53;7.60;;;17.60;82.30;;;;;;5062401;28;20442;-45
2022/06/28 05:42:29;;;;;;;8.50;6.87;;;17.60;82.30;;;;;;5058195;28;20434;-45
2022/06/28 05:44:55;;;;;;;10.40;7.70;;;17.70;82.10;;;;;;5044664;28;20967;-45
2022/06/28 05:47:22;;;;;;;8.63;7.50;;;17.70;81.80;;;;;;5046009;28;20548;-46
2022/06/28 05:49:49;;;;;;;9.10;7.20;;;17.80;81.00;;;;;;5055940;28;20450;-46
2022/06/28 05:52:16;;;;;;;9.30;8.20;;;17.80;81.10;;;;;;5058746;28;20457;-45
2022/06/28 05:54:42;;;;;;;8.33;7.57;;;17.80;81.20;;;;;;5067612;28;20449;-45
2022/06/28 05:57:09;;;;;;;8.93;7.17;;;17.90;80.90;;;;;;5065241;28;20443;-45
2022/06/28 05:59:36;;;;;;;8.80;6.03;;;17.90;80.60;;;;;;5047105;28;20473;-46
2022/06/28 06:02:03;;;;;;;6.83;6.13;;;18.00;80.10;;;;;;5064317;28;20446;-45
2022/06/28 06:04:30;;;;;;;7.70;6.80;;;18.00;79.70;;;;;;5060850;28;20441;-45
2022/06/28 06:06:57;;;;;;;7.90;6.70;;;18.10;79.20;;;;;;5050679;28;20454;-45
2022/06/28 06:09:24;;;;;;;6.83;6.13;;;18.10;78.50;;;;;;5053392;28;20448;-48
2022/06/28 06:11:57;;;;;;;8.70;7.00;;;18.20;78.70;;;;;;5065944;28;20477;-49
2022/06/28 06:14:24;;;;;;;8.83;7.70;;;18.30;78.90;;;;;;5062821;28;20662;-49
2022/06/28 06:16:50;;;;;;;11.13;7.00;;;18.30;78.80;;;;;;5063549;28;20478;-49
2022/06/28 06:19:18;;;;;;;9.67;6.80;;;18.30;78.80;;;;;;5062658;28;20470;-48
2022/06/28 06:21:45;;;;;;;7.83;7.10;;;18.40;78.10;;;;;;5066759;28;20801;-48
2022/06/28 06:24:12;;;;;;;10.87;7.03;;;18.50;77.80;;;;;;5065606;28;20450;-48
2022/06/28 06:26:39;;;;;;;12.93;8.07;;;18.50;77.50;;;;;;5063911;28;20452;-48
2022/06/28 06:29:06;;;;;;;10.27;7.20;;;18.50;77.30;;;;;;5048468;28;20479;-48
2022/06/28 06:31:32;;;;;;;7.13;5.93;;;18.50;77.10;;;;;;5046515;28;20532;-48
2022/06/28 06:34:00;;;;;;;7.60;6.00;;;18.60;76.20;;;;;;5063013;28;20454;-49
2022/06/28 06:36:28;;;;;;;9.30;6.40;;;18.70;76.20;;;;;;5063355;28;21083;-48
2022/06/28 06:38:55;;;;;;;7.60;6.80;;;18.70;76.00;;;;;;5066425;28;20446;-48
2022/06/28 06:41:22;;;;;;;8.77;6.20;;;18.80;75.80;;;;;;5062504;28;20928;-48
2022/06/28 06:43:49;;;;;;;8.13;6.10;;;18.90;75.20;;;;;;5058960;28;20437;-48
2022/06/28 06:46:15;;;;;;;6.53;5.63;;;18.90;75.80;;;;;;5047806;28;20438;-48
2022/06/28 06:48:49;;;;;;;7.40;5.97;;;18.90;76.00;;;;;;5048463;28;21113;-48
2022/06/28 06:51:16;;;;;;;14.13;7.40;;;18.90;76.20;;;;;;5051154;28;21264;-49
2022/06/28 06:53:43;;;;;;;6.63;6.03;;;19.00;75.70;;;;;;5064584;28;20458;-48
2022/06/28 06:56:11;;;;;;;6.90;6.30;;;19.00;75.10;;;;;;5060402;28;20587;-48
2022/06/28 06:58:38;;;;;;;7.40;5.87;;;19.10;74.70;;;;;;5062148;28;20525;-48
2022/06/28 07:01:05;;;;;;;7.20;6.50;;;19.20;73.80;;;;;;5049029;28;20837;-49
2022/06/28 07:03:52;;;;;;;9.50;6.87;;;19.20;73.80;;;;;;5051616;28;20445;-48
2022/06/28 07:06:18;;;;;;;6.43;5.73;;;19.20;73.50;;;;;;5062022;28;20446;-49
2022/06/28 07:08:45;;;;;;;7.67;6.07;;;19.30;74.00;;;;;;5061848;28;20438;-48
2022/06/28 07:11:15;;;;;;;7.70;6.90;;;19.40;74.50;;;;;;5062232;28;20453;-49
2022/06/28 07:13:42;;;;;;;7.93;6.90;;;19.50;73.40;;;;;;5066701;28;20457;-49
2022/06/28 07:16:09;;;;;;;7.20;6.10;;;19.50;73.70;;;;;;5064272;28;20485;-48
2022/06/28 07:18:36;;;;;;;6.77;6.10;;;19.50;73.50;;;;;;5065707;28;20491;-48
2022/06/28 07:21:03;;;;;;;5.23;4.73;;;19.60;74.00;;;;;;5062045;28;20442;-48
2022/06/28 07:23:30;;;;;;;6.97;5.67;;;19.80;72.30;;;;;;5064603;28;20539;-49
2022/06/28 07:25:57;;;;;;;6.43;4.03;;;19.90;71.90;;;;;;5061806;28;20544;-49
2022/06/28 07:28:23;;;;;;;6.37;4.93;;;20.10;70.10;;;;;;5048902;28;20821;-48
2022/06/28 07:30:50;;;;;;;7.23;4.60;;;20.20;68.90;;;;;;5063215;28;20454;-48
2022/06/28 07:33:17;;;;;;;7.57;4.30;;;20.40;68.80;;;;;;5060181;28;20818;-48
2022/06/28 07:35:44;;;;;;;7.10;4.60;;;20.50;68.90;;;;;;5045875;28;20841;-48
2022/06/28 07:38:11;;;;;;;8.80;5.10;;;20.70;68.20;;;;;;5063671;28;20445;-49
2022/06/28 07:40:38;;;;;;;6.67;4.40;;;20.90;67.20;;;;;;5063240;28;20445;-48
2022/06/28 07:43:05;;;;;;;3.77;3.37;;;21.00;67.00;;;;;;5052025;28;21108;-49
2022/06/28 07:45:36;;;;;;;3.90;3.33;;;21.20;66.20;;;;;;5048975;28;20442;-48
2022/06/28 07:48:03;;;;;;;4.77;3.03;;;21.30;63.00;;;;;;5062527;28;20537;-48
2022/06/28 07:53:16;;;;;;;5.47;3.40;;;21.50;62.10;;;;;;5062803;28;20445;-48
2022/06/28 07:55:43;;;;;;;4.93;3.40;;;21.70;63.00;;;;;;5062086;28;20896;-48
2022/06/28 07:58:10;;;;;;;5.07;2.80;;;21.80;62.40;;;;;;5061969;28;20442;-48
2022/06/28 08:00:37;;;;;;;3.37;2.97;;;21.90;61.30;;;;;;5063084;28;20986;-48
2022/06/28 08:03:05;;;;;;;3.23;2.93;;;22.00;60.30;;;;;;5062076;28;20487;-48
2022/06/28 08:05:32;;;;;;;2.80;2.60;;;22.10;58.80;;;;;;5056739;28;20489;-48
2022/06/28 08:07:58;;;;;;;4.90;3.30;;;22.30;58.80;;;;;;5062916;28;20450;-48
2022/06/28 08:10:25;;;;;;;4.67;2.80;;;22.40;58.90;;;;;;5060460;28;20446;-48
2022/06/28 08:12:52;;;;;;;2.83;2.60;;;22.60;59.30;;;;;;5061745;28;20449;-48
2022/06/28 08:15:19;;;;;;;3.80;2.70;;;22.70;59.30;;;;;;5045852;28;21003;-48
2022/06/28 08:17:46;;;;;;;5.30;2.43;;;22.90;57.80;;;;;;5046213;28;20479;-48
2022/06/28 08:20:13;;;;;;;3.47;2.47;;;23.10;56.80;;;;;;5064413;28;20541;-49
2022/06/28 08:22:39;;;;;;;2.00;1.80;;;23.30;56.70;;;;;;5059168;28;20442;-49
2022/06/28 08:25:07;;;;;;;2.53;2.20;;;23.40;55.10;;;;;;5044549;28;20448;-49
2022/06/28 08:27:34;;;;;;;4.27;2.67;;;23.60;54.80;;;;;;5059389;28;20528;-49
2022/06/28 08:30:01;;;;;;;3.77;2.57;;;23.80;56.30;;;;;;5060111;28;21038;-49
2022/06/28 08:32:28;;;;;;;2.53;2.10;;;23.90;54.60;;;;;;5060957;28;20451;-49
2022/06/28 08:34:55;;;;;;;4.33;2.43;;;24.00;53.20;;;;;;5046967;28;20464;-49
2022/06/28 08:37:22;;;;;;;4.43;3.10;;;24.10;53.80;;;;;;5064205;28;20485;-49
2022/06/28 08:39:49;;;;;;;5.60;3.10;;;24.10;55.10;;;;;;5059688;28;20452;-49
2022/06/28 08:42:24;;;;;;;3.23;2.50;;;24.20;54.30;;;;;;5064503;28;20453;-49
2022/06/28 08:44:52;;;;;;;3.37;2.50;;;24.30;54.70;;;;;;5063715;28;20535;-49
2022/06/28 08:47:22;;;;;;;4.30;2.33;;;24.30;52.40;;;;;;5047931;28;20445;-49
2022/06/28 08:49:57;;;;;;;3.90;2.37;;;24.40;52.40;;;;;;5062636;28;21023;-49
2022/06/28 08:52:25;;;;;;;3.33;2.60;;;24.60;52.60;;;;;;5059724;28;20447;-49
2022/06/28 08:54:52;;;;;;;3.20;2.00;;;24.60;52.30;;;;;;5044446;28;20445;-49
2022/06/28 08:57:20;;;;;;;4.40;2.30;;;24.70;51.30;;;;;;5054119;28;21072;-49
2022/06/28 08:59:48;;;;;;;3.27;2.13;;;24.70;51.60;;;;;;5059252;28;20460;-46
2022/06/28 09:02:16;;;;;;;3.17;2.87;;;24.80;51.30;;;;;;5061663;28;20524;-46
2022/06/28 09:04:51;;;;;;;2.63;2.43;;;25.00;51.30;;;;;;5063301;28;20451;-46
2022/06/28 09:07:17;;;;;;;2.43;2.23;;;25.10;50.20;;;;;;5044717;28;20556;-46
2022/06/28 09:09:44;;;;;;;3.50;2.53;;;25.30;49.20;;;;;;5062023;28;20446;-49
2022/06/28 09:12:11;;;;;;;5.70;2.00;;;25.40;48.20;;;;;;5060624;28;20879;-49
2022/06/28 09:14:39;;;;;;;1.77;1.60;;;25.50;47.20;;;;;;5062686;28;20460;-49
2022/06/28 09:17:29;;;;;;;6.73;1.37;;;25.60;46.90;;;;;;5060544;28;21067;-49
2022/06/28 09:20:03;;;;;;;2.10;1.20;;;25.70;47.40;;;;;;5069149;28;20476;-47
2022/06/28 09:22:50;;;;;;;4.00;2.10;;;25.90;46.50;;;;;;5048580;28;20934;-48
2022/06/28 09:25:31;;;;;;;1.60;1.50;;;26.00;44.70;;;;;;5059111;28;20450;-46
2022/06/28 09:28:00;;;;;;;1.93;1.20;;;26.00;44.90;;;;;;5060475;28;20520;-46
2022/06/28 09:30:31;;;;;;;2.13;1.33;;;26.20;44.70;;;;;;5047543;28;20449;-47
2022/06/28 09:33:02;;;;;;;1.93;1.23;;;26.30;44.50;;;;;;5064908;28;20453;-47
2022/06/28 09:35:29;;;;;;;1.70;0.90;;;26.40;44.40;;;;;;5064598;28;20445;-47
2022/06/28 09:37:56;;;;;;;1.83;1.40;;;26.60;44.90;;;;;;5061648;28;20607;-47
2022/06/28 09:40:23;;;;;;;4.23;1.80;;;26.70;43.70;;;;;;5060777;28;20430;-47
2022/06/28 09:43:13;;;;;;;1.37;1.27;;;26.80;43.00;;;;;;5061994;28;20799;-47
2022/06/28 09:45:43;;;;;;;1.80;1.20;;;27.00;43.20;;;;;;5058079;28;20445;-47
2022/06/28 09:48:16;;;;;;;1.40;1.30;;;27.20;42.10;;;;;;5049090;28;20207;-46
2022/06/28 09:50:43;;;;;;;3.13;1.67;;;27.30;41.50;;;;;;5062107;28;20294;-47
2022/06/28 09:53:19;;;;;;;1.60;1.50;;;27.60;41.80;;;;;;5048583;28;20607;-47
2022/06/28 09:55:46;;;;;;;1.63;1.23;;;27.80;41.90;;;;;;5062197;28;20310;-47
2022/06/28 09:58:14;;;;;;;2.00;1.30;;;27.90;40.90;;;;;;5062344;28;20200;-47
2022/06/28 10:00:41;;;;;;;3.53;1.50;;;28.00;40.20;;;;;;5062430;28;20475;-47
2022/06/28 10:03:09;;;;;;;2.20;1.17;;;28.20;39.50;;;;;;5045486;28;20739;-47
2022/06/28 10:05:35;;;;;;;0.93;0.80;;;28.30;39.10;;;;;;5056548;28;20357;-47
2022/06/28 10:08:03;;;;;;;1.30;1.10;;;28.50;39.00;;;;;;5058542;28;20219;-46
2022/06/28 10:10:30;;;;;;;3.38;2.05;;;28.60;39.00;;;;;;5060663;28;20641;-48
2022/06/28 10:15:59;;;;;;;1.85;1.20;;;28.80;39.80;;;;;;5061703;28;20217;-47
2022/06/28 10:18:28;;;;;;;2.70;1.60;;;29.00;39.00;;;;;;5044055;28;20221;-47
2022/06/28 10:20:55;;;;;;;2.88;1.55;;;29.10;38.10;;;;;;5063505;28;20303;-47
2022/06/28 10:23:40;;;;;;;1.42;1.20;;;29.00;38.50;;;;;;5061121;28;20684;-47
2022/06/28 10:26:09;;;;;;;1.30;1.20;;;29.10;38.70;;;;;;5061756;28;20277;-47
2022/06/28 10:28:46;;;;;;;2.92;1.10;;;29.10;37.80;;;;;;5064261;28;20206;-47
2022/06/28 10:31:25;;;;;;;5.03;1.40;;;29.10;37.30;;;;;;5047392;28;20202;-46
2022/06/28 10:35:01;;;;;;;2.78;0.93;;;29.10;35.80;;;;;;5050069;28;20209;-47
2022/06/28 10:37:28;;;;;;;2.10;1.13;;;29.10;35.90;;;;;;5044515;28;20310;-47
2022/06/28 10:40:23;;;;;;;4.63;1.15;;;29.10;36.00;;;;;;5062729;28;20286;-47
2022/06/28 10:42:52;;;;;;;1.90;0.93;;;28.90;35.80;;;;;;5065424;28;20309;-46
2022/06/28 10:45:23;;;;;;;3.63;1.08;;;28.80;37.30;;;;;;5046868;28;20559;-47
2022/06/28 10:48:09;;;;;;;3.22;1.10;;;28.50;37.70;;;;;;5060730;28;20215;-46
2022/06/28 10:50:56;;;;;;;2.97;0.80;;;28.20;37.10;;;;;;5064726;28;20763;-46
2022/06/28 10:53:25;;;;;;;1.40;1.10;;;27.90;37.40;;;;;;5063735;28;20207;-47
2022/06/28 10:56:14;;;;;;;2.17;1.60;;;27.60;37.90;;;;;;5065172;28;20211;-47
2022/06/28 10:59:01;;;;;;;1.70;1.30;;;27.30;38.20;;;;;;5063955;28;20316;-47
2022/06/28 11:01:40;;;;;;;2.73;1.00;;;27.10;39.50;;;;;;5064977;28;20223;-46
2022/06/28 11:04:24;;;;;;;2.53;0.90;;;26.80;39.40;;;;;;5063948;28;20206;-47
2022/06/28 11:06:54;;;;;;;2.07;0.97;;;26.60;40.00;;;;;;5063324;28;20576;-47
2022/06/28 11:09:36;;;;;;;3.13;0.97;;;26.30;39.80;;;;;;5044702;28;20442;-47
2022/06/28 11:12:17;;;;;;;1.27;0.80;;;26.20;40.70;;;;;;5063130;28;20515;-47
2022/06/28 11:14:53;;;;;;;0.90;0.90;;;26.00;40.60;;;;;;5064825;28;20455;-47
2022/06/28 11:17:22;;;;;;;1.10;0.80;;;25.90;40.90;;;;;;5047315;28;20507;-47
2022/06/28 11:20:05;;;;;;;3.70;1.07;;;25.80;40.80;;;;;;5052577;28;20480;-47
2022/06/28 11:22:41;;;;;;;1.80;1.07;;;25.60;40.00;;;;;;5063867;28;20516;-47
2022/06/28 11:25:13;;;;;;;3.63;0.80;;;25.50;40.70;;;;;;5060584;28;20567;-47
2022/06/28 11:27:58;;;;;;;3.83;1.13;;;25.50;41.80;;;;;;5048443;28;20441;-46
2022/06/28 11:30:28;;;;;;;1.43;0.73;;;25.50;40.60;;;;;;5062849;28;20544;-47
2022/06/28 11:32:56;;;;;;;2.23;1.30;;;25.30;41.20;;;;;;5063554;28;20523;-47
2022/06/28 11:35:25;;;;;;;3.57;1.60;;;25.30;41.50;;;;;;5049707;28;20445;-47
2022/06/28 11:37:56;;;;;;;1.70;1.03;;;25.20;41.20;;;;;;5039802;28;20486;-47
2022/06/28 11:40:38;;;;;;;1.20;0.80;;;25.10;41.00;;;;;;5066326;28;20915;-46
2022/06/28 11:43:07;;;;;;;4.60;1.10;;;25.00;40.90;;;;;;5064607;28;20433;-47
2022/06/28 11:45:41;;;;;;;1.37;0.70;;;25.00;40.70;;;;;;5065446;28;20940;-47
2022/06/28 11:48:16;;;;;;;2.17;1.20;;;25.00;42.20;;;;;;5063860;28;20447;-46
2022/06/28 11:50:53;;;;;;;1.33;0.87;;;25.00;42.10;;;;;;5046050;28;21228;-46
2022/06/28 11:53:21;;;;;;;2.27;1.10;;;24.90;42.00;;;;;;5048944;28;21001;-46
2022/06/28 11:55:52;;;;;;;2.70;1.30;;;24.80;41.80;;;;;;5060476;28;20821;-47
2022/06/28 11:58:27;;;;;;;1.23;1.10;;;24.80;41.80;;;;;;5063485;28;20488;-46
2022/06/28 12:01:09;;;;;;;3.60;1.20;;;24.90;42.00;;;;;;5065140;28;20467;-46
2022/06/28 12:03:42;;;;;;;0.70;0.70;;;25.00;42.00;;;;;;5062658;28;20951;-46
2022/06/28 12:06:24;;;;;;;2.07;1.00;;;25.00;41.20;;;;;;5061734;28;20472;-47
2022/06/28 12:08:53;;;;;;;2.53;0.87;;;25.00;41.00;;;;;;5058699;28;20470;-46
2022/06/28 12:11:37;;;;;;;2.00;0.93;;;24.90;40.70;;;;;;5064456;28;20449;-46
2022/06/28 12:14:19;;;;;;;1.93;0.80;;;24.80;40.30;;;;;;5060285;28;20450;-46
2022/06/28 12:16:47;;;;;;;1.57;0.80;;;24.80;40.40;;;;;;5042851;28;20501;-46
2022/06/28 12:19:15;;;;;;;1.87;1.20;;;24.80;41.00;;;;;;5061711;28;20451;-46
2022/06/28 12:22:05;;;;;;;1.20;0.80;;;24.80;41.50;;;;;;5060990;28;20437;-47
2022/06/28 12:25:07;;;;;;;1.70;1.47;;;24.80;40.70;;;;;;5063939;28;20451;-47
2022/06/28 12:27:36;;;;;;;1.90;0.90;;;24.80;40.70;;;;;;5063374;28;20445;-46
2022/06/28 12:30:06;;;;;;;4.23;2.50;;;24.80;39.90;;;;;;5045105;28;20460;-46
2022/06/28 12:32:33;;;;;;;2.33;0.83;;;24.80;40.40;;;;;;5057704;28;20450;-46
2022/06/28 12:35:15;;;;;;;1.40;0.90;;;24.80;40.40;;;;;;5065755;28;20519;-46
2022/06/28 12:37:42;;;;;;;2.40;1.00;;;24.70;41.20;;;;;;5061657;28;20486;-46
2022/06/28 12:40:11;;;;;;;2.10;1.37;;;24.80;40.70;;;;;;5065260;28;20533;-46
2022/06/28 12:42:38;;;;;;;0.90;0.80;;;24.80;40.40;;;;;;5064341;28;20539;-47
2022/06/28 12:45:06;;;;;;;1.10;1.00;;;24.80;39.90;;;;;;5062578;28;20516;-46
2022/06/28 12:47:35;;;;;;;5.13;1.40;;;24.80;40.10;;;;;;5044524;28;20453;-46
2022/06/28 12:50:05;;;;;;;1.57;0.90;;;24.80;40.50;;;;;;5046779;28;20956;-46
2022/06/28 12:52:34;;;;;;;1.20;1.10;;;24.80;40.50;;;;;;5063815;28;20823;-47
2022/06/28 12:55:01;;;;;;;3.00;0.90;;;24.90;41.10;;;;;;5061509;28;20454;-46
2022/06/28 12:57:28;;;;;;;1.80;1.17;;;24.80;40.80;;;;;;5060985;28;20480;-46
2022/06/28 12:59:56;;;;;;;1.70;1.00;;;24.90;41.10;;;;;;5053210;28;20476;-47
2022/06/28 13:02:23;;;;;;;1.00;0.90;;;24.90;42.10;;;;;;5065626;28;20441;-46
2022/06/28 13:04:51;;;;;;;2.70;1.10;;;24.90;41.70;;;;;;5064062;28;20849;-47
2022/06/28 13:07:21;;;;;;;3.30;1.10;;;24.90;40.70;;;;;;5059369;28;20450;-46
2022/06/28 13:09:48;;;;;;;1.27;1.17;;;25.00;40.50;;;;;;5044442;28;20856;-47
2022/06/28 13:12:16;;;;;;;1.77;0.93;;;25.00;40.40;;;;;;5060857;28;20473;-46